sensor_id;sensor_type;location;lat;lon;timestamp;pressure;altitude;pressure_sealevel;temperature;humidity
21900;BME280;11114;50.658;12.704;2022-08-01T00:00:06;95936.03;;;20.88;55.44
21900;BME280;11114;50.658;12.704;2022-08-01T00:02:36;95941.34;;;20.88;55.43
21900;BME280;11114;50.658;12.704;2022-08-01T00:05:03;95941.34;;;20.88;55.57
21900;BME280;11114;50.658;12.704;2022-08-01T00:07:33;95946.66;;;20.88;55.35
21900;BME280;11114;50.658;12.704;2022-08-01T00:10:00;95932.13;;;20.91;55.24
21900;BME280;11114;50.658;12.704;2022-08-01T00:12:27;95932.94;;;20.91;55.44
21900;BME280;11114;50.658;12.704;2022-08-01T00:14:54;95926.91;;;20.84;55.59
21900;BME280;11114;50.658;12.704;2022-08-01T00:17:21;95927.94;;;20.83;55.42
21900;BME280;11114;50.658;12.704;2022-08-01T00:19:47;95921.72;;;20.89;55.68
21900;BME280;11114;50.658;12.704;2022-08-01T00:22:14;95924.19;;;20.91;55.61
21900;BME280;11114;50.658;12.704;2022-08-01T00:24:41;95924.72;;;20.93;55.28
21900;BME280;11114;50.658;12.704;2022-08-01T00:27:08;95917.16;;;20.96;55.41
21900;BME280;11114;50.658;12.704;2022-08-01T00:29:34;95925.69;;;20.98;55.26
21900;BME280;11114;50.658;12.704;2022-08-01T00:32:21;95920.59;;;20.97;55.15
21900;BME280;11114;50.658;12.704;2022-08-01T00:34:48;95924.66;;;20.99;55.33
21900;BME280;11114;50.658;12.704;2022-08-01T00:37:16;95916.22;;;20.91;55.48
21900;BME280;11114;50.658;12.704;2022-08-01T00:39:43;95920.69;;;20.90;55.37
21900;BME280;11114;50.658;12.704;2022-08-01T00:42:11;95920.25;;;20.93;55.25
21900;BME280;11114;50.658;12.704;2022-08-01T00:44:39;95915.88;;;20.99;55.54
21900;BME280;11114;50.658;12.704;2022-08-01T00:47:06;95912.75;;;21.02;55.25
21900;BME280;11114;50.658;12.704;2022-08-01T00:49:34;95917.84;;;21.03;55.15
21900;BME280;11114;50.658;12.704;2022-08-01T00:52:02;95913.69;;;21.07;55.36
21900;BME280;11114;50.658;12.704;2022-08-01T00:54:30;95914.03;;;21.11;55.20
21900;BME280;11114;50.658;12.704;2022-08-01T00:56:57;95906.91;;;21.11;55.13
21900;BME280;11114;50.658;12.704;2022-08-01T00:59:25;95915.19;;;21.03;55.11
21900;BME280;11114;50.658;12.704;2022-08-01T01:01:52;95911.03;;;20.96;55.21
21900;BME280;11114;50.658;12.704;2022-08-01T01:04:20;95907.00;;;20.93;55.35
21900;BME280;11114;50.658;12.704;2022-08-01T01:07:36;95901.00;;;20.98;55.51
21900;BME280;11114;50.658;12.704;2022-08-01T01:10:25;95903.56;;;21.04;55.26
21900;BME280;11114;50.658;12.704;2022-08-01T01:13:02;95895.34;;;21.06;55.40
21900;BME280;11114;50.658;12.704;2022-08-01T01:15:41;95899.47;;;21.02;55.38
21900;BME280;11114;50.658;12.704;2022-08-01T01:18:20;95904.78;;;21.02;55.48
21900;BME280;11114;50.658;12.704;2022-08-01T01:21:11;95903.22;;;21.01;55.45
21900;BME280;11114;50.658;12.704;2022-08-01T01:24:11;95897.50;;;20.97;55.71
21900;BME280;11114;50.658;12.704;2022-08-01T01:26:51;95904.91;;;20.95;55.73
21900;BME280;11114;50.658;12.704;2022-08-01T01:29:28;95893.81;;;20.87;56.00
21900;BME280;11114;50.658;12.704;2022-08-01T01:32:23;95895.41;;;20.76;55.80
21900;BME280;11114;50.658;12.704;2022-08-01T01:34:56;95901.72;;;20.75;55.90
21900;BME280;11114;50.658;12.704;2022-08-01T01:37:27;95903.03;;;20.84;55.83
21900;BME280;11114;50.658;12.704;2022-08-01T01:39:56;95898.53;;;20.85;55.53
21900;BME280;11114;50.658;12.704;2022-08-01T01:42:25;95895.63;;;20.75;55.61
21900;BME280;11114;50.658;12.704;2022-08-01T01:44:53;95893.06;;;20.68;55.97
21900;BME280;11114;50.658;12.704;2022-08-01T01:47:21;95897.69;;;20.73;55.77
21900;BME280;11114;50.658;12.704;2022-08-01T01:49:51;95891.72;;;20.77;55.62
21900;BME280;11114;50.658;12.704;2022-08-01T01:52:20;95898.84;;;20.77;55.73
21900;BME280;11114;50.658;12.704;2022-08-01T01:54:49;95889.88;;;20.78;55.94
21900;BME280;11114;50.658;12.704;2022-08-01T01:57:18;95891.00;;;20.70;55.74
21900;BME280;11114;50.658;12.704;2022-08-01T01:59:47;95894.53;;;20.65;56.02
21900;BME280;11114;50.658;12.704;2022-08-01T02:02:17;95882.44;;;20.68;55.85
21900;BME280;11114;50.658;12.704;2022-08-01T02:04:46;95888.09;;;20.72;55.89
21900;BME280;11114;50.658;12.704;2022-08-01T02:07:20;95888.88;;;20.72;56.20
21900;BME280;11114;50.658;12.704;2022-08-01T02:09:49;95895.13;;;20.67;56.18
21900;BME280;11114;50.658;12.704;2022-08-01T02:12:18;95902.28;;;20.66;56.04
21900;BME280;11114;50.658;12.704;2022-08-01T02:14:50;95893.56;;;20.59;56.22
21900;BME280;11114;50.658;12.704;2022-08-01T02:17:19;95906.38;;;20.51;56.35
21900;BME280;11114;50.658;12.704;2022-08-01T02:19:47;95915.31;;;20.38;56.67
21900;BME280;11114;50.658;12.704;2022-08-01T02:22:34;95918.75;;;20.39;56.93
21900;BME280;11114;50.658;12.704;2022-08-01T02:25:27;95920.28;;;20.46;57.13
21900;BME280;11114;50.658;12.704;2022-08-01T02:28:11;95914.91;;;20.53;57.11
21900;BME280;11114;50.658;12.704;2022-08-01T02:30:44;95918.00;;;20.50;56.97
21900;BME280;11114;50.658;12.704;2022-08-01T02:33:17;95910.03;;;20.50;57.13
21900;BME280;11114;50.658;12.704;2022-08-01T02:35:49;95908.41;;;20.49;57.01
21900;BME280;11114;50.658;12.704;2022-08-01T02:38:41;95913.72;;;20.49;57.44
21900;BME280;11114;50.658;12.704;2022-08-01T02:41:11;95916.81;;;20.46;57.54
21900;BME280;11114;50.658;12.704;2022-08-01T02:43:43;95928.25;;;20.46;57.68
21900;BME280;11114;50.658;12.704;2022-08-01T02:46:25;95928.91;;;20.42;57.56
21900;BME280;11114;50.658;12.704;2022-08-01T02:48:55;95926.13;;;20.37;57.44
21900;BME280;11114;50.658;12.704;2022-08-01T02:51:24;95932.19;;;20.26;58.11
21900;BME280;11114;50.658;12.704;2022-08-01T02:53:53;95927.63;;;20.15;58.04
21900;BME280;11114;50.658;12.704;2022-08-01T02:56:22;95921.91;;;20.18;58.21
21900;BME280;11114;50.658;12.704;2022-08-01T02:58:50;95925.94;;;20.20;58.46
21900;BME280;11114;50.658;12.704;2022-08-01T03:01:19;95929.69;;;20.13;58.57
21900;BME280;11114;50.658;12.704;2022-08-01T03:03:47;95935.28;;;20.05;58.72
21900;BME280;11114;50.658;12.704;2022-08-01T03:06:15;95941.31;;;20.12;58.70
21900;BME280;11114;50.658;12.704;2022-08-01T03:08:44;95946.53;;;20.18;58.58
21900;BME280;11114;50.658;12.704;2022-08-01T03:11:13;95940.44;;;20.18;58.73
21900;BME280;11114;50.658;12.704;2022-08-01T03:13:42;95951.25;;;20.16;58.60
21900;BME280;11114;50.658;12.704;2022-08-01T03:16:11;95944.31;;;20.15;58.63
21900;BME280;11114;50.658;12.704;2022-08-01T03:18:40;95941.25;;;20.00;58.92
21900;BME280;11114;50.658;12.704;2022-08-01T03:21:09;95940.81;;;20.03;59.08
21900;BME280;11114;50.658;12.704;2022-08-01T03:23:37;95937.81;;;20.00;59.14
21900;BME280;11114;50.658;12.704;2022-08-01T03:26:05;95946.13;;;20.03;58.97
21900;BME280;11114;50.658;12.704;2022-08-01T03:28:32;95947.94;;;20.03;59.30
21900;BME280;11114;50.658;12.704;2022-08-01T03:31:00;95952.63;;;20.01;59.47
21900;BME280;11114;50.658;12.704;2022-08-01T03:33:28;95946.56;;;19.94;59.51
21900;BME280;11114;50.658;12.704;2022-08-01T03:35:56;95959.09;;;19.87;59.84
21900;BME280;11114;50.658;12.704;2022-08-01T03:38:26;95957.53;;;19.80;60.22
21900;BME280;11114;50.658;12.704;2022-08-01T03:41:02;95956.97;;;19.78;59.77
21900;BME280;11114;50.658;12.704;2022-08-01T03:43:45;95958.59;;;19.79;59.89
21900;BME280;11114;50.658;12.704;2022-08-01T03:46:21;95955.34;;;19.77;59.81
21900;BME280;11114;50.658;12.704;2022-08-01T03:48:53;95962.03;;;19.79;59.87
21900;BME280;11114;50.658;12.704;2022-08-01T03:51:22;95958.13;;;19.82;59.72
21900;BME280;11114;50.658;12.704;2022-08-01T03:53:50;95958.97;;;19.82;60.31
21900;BME280;11114;50.658;12.704;2022-08-01T03:56:19;95959.75;;;19.83;59.88
21900;BME280;11114;50.658;12.704;2022-08-01T03:58:47;95958.50;;;19.85;59.96
21900;BME280;11114;50.658;12.704;2022-08-01T04:01:16;95961.31;;;19.90;59.64
21900;BME280;11114;50.658;12.704;2022-08-01T04:03:44;95961.84;;;19.98;59.73
21900;BME280;11114;50.658;12.704;2022-08-01T04:06:11;95969.38;;;20.01;59.74
21900;BME280;11114;50.658;12.704;2022-08-01T04:08:40;95964.44;;;20.05;59.82
21900;BME280;11114;50.658;12.704;2022-08-01T04:11:08;95969.13;;;20.03;59.64
21900;BME280;11114;50.658;12.704;2022-08-01T04:13:35;95970.09;;;20.08;59.42
21900;BME280;11114;50.658;12.704;2022-08-01T04:16:04;95967.16;;;20.16;59.58
21900;BME280;11114;50.658;12.704;2022-08-01T04:18:31;95973.34;;;20.10;59.65
21900;BME280;11114;50.658;12.704;2022-08-01T04:20:58;95964.38;;;20.11;59.91
21900;BME280;11114;50.658;12.704;2022-08-01T04:23:26;95972.53;;;20.10;60.09
21900;BME280;11114;50.658;12.704;2022-08-01T04:25:55;95976.22;;;20.09;59.94
21900;BME280;11114;50.658;12.704;2022-08-01T04:28:22;95973.78;;;20.07;60.23
21900;BME280;11114;50.658;12.704;2022-08-01T04:30:52;95980.75;;;20.02;60.39
21900;BME280;11114;50.658;12.704;2022-08-01T04:33:28;95976.72;;;19.99;60.39
21900;BME280;11114;50.658;12.704;2022-08-01T04:35:58;95983.31;;;19.90;61.11
21900;BME280;11114;50.658;12.704;2022-08-01T04:38:31;95980.03;;;19.95;61.14
21900;BME280;11114;50.658;12.704;2022-08-01T04:40:59;95987.22;;;19.88;61.38
21900;BME280;11114;50.658;12.704;2022-08-01T04:43:38;95989.72;;;19.83;61.53
21900;BME280;11114;50.658;12.704;2022-08-01T04:46:06;95985.44;;;19.82;61.79
21900;BME280;11114;50.658;12.704;2022-08-01T04:48:36;95991.03;;;19.92;61.94
21900;BME280;11114;50.658;12.704;2022-08-01T04:51:04;95990.22;;;19.91;61.94
21900;BME280;11114;50.658;12.704;2022-08-01T04:53:31;95992.63;;;19.99;62.08
21900;BME280;11114;50.658;12.704;2022-08-01T04:55:58;95989.19;;;19.99;61.74
21900;BME280;11114;50.658;12.704;2022-08-01T04:58:25;95988.50;;;20.03;61.94
21900;BME280;11114;50.658;12.704;2022-08-01T05:00:52;95989.81;;;19.94;61.94
21900;BME280;11114;50.658;12.704;2022-08-01T05:03:19;95994.69;;;19.97;62.76
21900;BME280;11114;50.658;12.704;2022-08-01T05:05:45;95993.09;;;19.90;63.39
21900;BME280;11114;50.658;12.704;2022-08-01T05:08:12;95994.84;;;19.78;64.01
21900;BME280;11114;50.658;12.704;2022-08-01T05:10:39;95996.56;;;19.66;64.68
21900;BME280;11114;50.658;12.704;2022-08-01T05:13:06;95996.00;;;19.64;64.58
21900;BME280;11114;50.658;12.704;2022-08-01T05:15:34;95997.03;;;19.63;65.14
21900;BME280;11114;50.658;12.704;2022-08-01T05:18:03;96000.84;;;19.67;65.15
21900;BME280;11114;50.658;12.704;2022-08-01T05:20:30;96004.69;;;19.71;65.29
21900;BME280;11114;50.658;12.704;2022-08-01T05:22:57;96005.00;;;19.81;65.49
21900;BME280;11114;50.658;12.704;2022-08-01T05:25:24;96000.09;;;19.84;65.64
21900;BME280;11114;50.658;12.704;2022-08-01T05:28:11;96002.66;;;19.73;66.12
21900;BME280;11114;50.658;12.704;2022-08-01T05:30:44;96006.97;;;19.68;66.66
21900;BME280;11114;50.658;12.704;2022-08-01T05:33:11;96013.19;;;19.55;67.17
21900;BME280;11114;50.658;12.704;2022-08-01T05:35:38;96004.16;;;19.38;68.14
21900;BME280;11114;50.658;12.704;2022-08-01T05:38:15;96010.31;;;19.32;67.97
21900;BME280;11114;50.658;12.704;2022-08-01T05:40:42;96014.13;;;19.43;68.18
21900;BME280;11114;50.658;12.704;2022-08-01T05:43:09;96009.34;;;19.51;68.17
21900;BME280;11114;50.658;12.704;2022-08-01T05:45:35;96007.81;;;19.62;67.82
21900;BME280;11114;50.658;12.704;2022-08-01T05:48:03;96006.78;;;19.63;67.62
21900;BME280;11114;50.658;12.704;2022-08-01T05:50:29;96005.81;;;19.57;68.19
21900;BME280;11114;50.658;12.704;2022-08-01T05:52:57;96002.81;;;19.54;68.21
21900;BME280;11114;50.658;12.704;2022-08-01T05:55:24;96009.94;;;19.53;68.24
21900;BME280;11114;50.658;12.704;2022-08-01T05:57:51;96003.16;;;19.57;68.58
21900;BME280;11114;50.658;12.704;2022-08-01T06:00:17;96006.22;;;19.61;68.51
21900;BME280;11114;50.658;12.704;2022-08-01T06:02:44;95994.06;;;19.53;68.63
21900;BME280;11114;50.658;12.704;2022-08-01T06:05:11;96005.94;;;19.44;69.08
21900;BME280;11114;50.658;12.704;2022-08-01T06:07:39;96000.81;;;19.49;69.34
21900;BME280;11114;50.658;12.704;2022-08-01T06:10:07;96007.06;;;19.55;69.33
21900;BME280;11114;50.658;12.704;2022-08-01T06:12:35;96010.75;;;19.54;69.32
21900;BME280;11114;50.658;12.704;2022-08-01T06:15:04;96007.53;;;19.52;69.59
21900;BME280;11114;50.658;12.704;2022-08-01T06:17:31;96016.63;;;19.56;68.98
21900;BME280;11114;50.658;12.704;2022-08-01T06:19:57;96014.25;;;19.48;69.33
21900;BME280;11114;50.658;12.704;2022-08-01T06:22:24;96012.81;;;19.52;69.48
21900;BME280;11114;50.658;12.704;2022-08-01T06:24:51;96014.09;;;19.67;69.21
21900;BME280;11114;50.658;12.704;2022-08-01T06:27:18;96021.38;;;19.72;69.17
21900;BME280;11114;50.658;12.704;2022-08-01T06:29:48;96027.50;;;19.72;68.93
21900;BME280;11114;50.658;12.704;2022-08-01T06:32:20;96027.00;;;19.82;69.11
21900;BME280;11114;50.658;12.704;2022-08-01T06:34:54;96031.81;;;19.91;69.06
21900;BME280;11114;50.658;12.704;2022-08-01T06:37:22;96026.94;;;19.88;69.11
21900;BME280;11114;50.658;12.704;2022-08-01T06:39:49;96020.75;;;20.00;68.92
21900;BME280;11114;50.658;12.704;2022-08-01T06:42:16;96025.09;;;20.13;68.26
21900;BME280;11114;50.658;12.704;2022-08-01T06:44:44;96029.81;;;20.29;67.64
21900;BME280;11114;50.658;12.704;2022-08-01T06:47:11;96031.75;;;20.40;67.46
21900;BME280;11114;50.658;12.704;2022-08-01T06:49:38;96018.34;;;20.53;67.04
21900;BME280;11114;50.658;12.704;2022-08-01T06:52:05;96036.75;;;20.66;66.76
21900;BME280;11114;50.658;12.704;2022-08-01T06:54:32;96029.69;;;20.77;66.54
21900;BME280;11114;50.658;12.704;2022-08-01T06:56:59;96028.00;;;20.83;66.38
21900;BME280;11114;50.658;12.704;2022-08-01T06:59:26;96031.66;;;20.82;66.77
21900;BME280;11114;50.658;12.704;2022-08-01T07:01:52;96035.41;;;20.74;67.09
21900;BME280;11114;50.658;12.704;2022-08-01T07:04:19;96041.81;;;20.67;66.99
21900;BME280;11114;50.658;12.704;2022-08-01T07:06:49;96036.50;;;20.67;67.11
21900;BME280;11114;50.658;12.704;2022-08-01T07:09:17;96034.31;;;20.64;67.29
21900;BME280;11114;50.658;12.704;2022-08-01T07:11:44;96033.78;;;20.56;67.45
21900;BME280;11114;50.658;12.704;2022-08-01T07:14:10;96037.84;;;20.58;67.61
21900;BME280;11114;50.658;12.704;2022-08-01T07:16:40;96038.13;;;20.68;67.43
21900;BME280;11114;50.658;12.704;2022-08-01T07:19:07;96036.72;;;21.01;66.89
21900;BME280;11114;50.658;12.704;2022-08-01T07:21:34;96038.72;;;21.17;66.25
21900;BME280;11114;50.658;12.704;2022-08-01T07:24:08;96026.28;;;21.18;66.17
21900;BME280;11114;50.658;12.704;2022-08-01T07:26:44;96032.94;;;21.09;66.45
21900;BME280;11114;50.658;12.704;2022-08-01T07:29:25;96029.47;;;21.08;66.53
21900;BME280;11114;50.658;12.704;2022-08-01T07:31:54;96028.44;;;21.09;66.51
21900;BME280;11114;50.658;12.704;2022-08-01T07:34:22;96030.13;;;21.04;66.64
21900;BME280;11114;50.658;12.704;2022-08-01T07:36:50;96034.81;;;20.90;67.06
21900;BME280;11114;50.658;12.704;2022-08-01T07:39:17;96028.44;;;20.80;67.27
21900;BME280;11114;50.658;12.704;2022-08-01T07:41:44;96034.53;;;20.80;67.50
21900;BME280;11114;50.658;12.704;2022-08-01T07:44:31;96032.50;;;20.76;67.65
21900;BME280;11114;50.658;12.704;2022-08-01T07:46:58;96033.50;;;20.81;67.78
21900;BME280;11114;50.658;12.704;2022-08-01T07:49:25;96042.19;;;20.88;67.40
21900;BME280;11114;50.658;12.704;2022-08-01T07:51:52;96040.03;;;20.97;67.40
21900;BME280;11114;50.658;12.704;2022-08-01T07:54:33;96037.34;;;21.15;66.62
21900;BME280;11114;50.658;12.704;2022-08-01T07:57:02;96040.66;;;21.10;66.69
21900;BME280;11114;50.658;12.704;2022-08-01T07:59:30;96035.47;;;21.15;66.78
21900;BME280;11114;50.658;12.704;2022-08-01T08:01:57;96039.44;;;21.24;66.49
21900;BME280;11114;50.658;12.704;2022-08-01T08:04:25;96031.97;;;21.33;66.05
21900;BME280;11114;50.658;12.704;2022-08-01T08:06:51;96024.53;;;21.52;66.04
21900;BME280;11114;50.658;12.704;2022-08-01T08:09:20;96027.13;;;21.82;65.02
21900;BME280;11114;50.658;12.704;2022-08-01T08:11:48;96037.06;;;21.86;64.88
21900;BME280;11114;50.658;12.704;2022-08-01T08:14:20;96034.84;;;21.72;65.32
21900;BME280;11114;50.658;12.704;2022-08-01T08:16:58;96055.44;;;21.36;66.16
21900;BME280;11114;50.658;12.704;2022-08-01T08:19:27;96065.78;;;20.96;68.02
21900;BME280;11114;50.658;12.704;2022-08-01T08:22:05;96066.09;;;20.53;69.72
21900;BME280;11114;50.658;12.704;2022-08-01T08:24:32;96060.47;;;20.43;70.11
21900;BME280;11114;50.658;12.704;2022-08-01T08:27:00;96066.22;;;20.58;69.79
21900;BME280;11114;50.658;12.704;2022-08-01T08:29:29;96063.81;;;20.92;69.35
21900;BME280;11114;50.658;12.704;2022-08-01T08:31:59;96063.72;;;21.57;67.88
21900;BME280;11114;50.658;12.704;2022-08-01T08:34:27;96067.75;;;22.35;66.61
21900;BME280;11114;50.658;12.704;2022-08-01T08:36:57;96059.97;;;22.95;65.27
21900;BME280;11114;50.658;12.704;2022-08-01T08:39:26;96057.34;;;23.51;63.17
21900;BME280;11114;50.658;12.704;2022-08-01T08:41:53;96060.09;;;23.56;63.06
21900;BME280;11114;50.658;12.704;2022-08-01T08:44:20;96062.09;;;24.09;61.95
21900;BME280;11114;50.658;12.704;2022-08-01T08:46:50;96057.81;;;23.76;62.66
21900;BME280;11114;50.658;12.704;2022-08-01T08:49:21;96068.25;;;23.66;62.93
21900;BME280;11114;50.658;12.704;2022-08-01T08:51:50;96065.16;;;23.41;63.89
21900;BME280;11114;50.658;12.704;2022-08-01T08:54:20;96067.09;;;23.18;64.17
21900;BME280;11114;50.658;12.704;2022-08-01T08:56:58;96062.97;;;23.10;64.22
21900;BME280;11114;50.658;12.704;2022-08-01T08:59:26;96056.13;;;23.58;63.34
21900;BME280;11114;50.658;12.704;2022-08-01T09:01:53;96059.09;;;24.06;61.76
21900;BME280;11114;50.658;12.704;2022-08-01T09:04:21;96057.09;;;23.80;62.56
21900;BME280;11114;50.658;12.704;2022-08-01T09:06:53;96072.09;;;23.14;63.58
21900;BME280;11114;50.658;12.704;2022-08-01T09:09:21;96077.50;;;22.80;64.91
21900;BME280;11114;50.658;12.704;2022-08-01T09:11:49;96083.44;;;22.47;65.43
21900;BME280;11114;50.658;12.704;2022-08-01T09:14:25;96076.84;;;23.12;64.46
21900;BME280;11114;50.658;12.704;2022-08-01T09:17:05;96056.91;;;25.95;57.65
21900;BME280;11114;50.658;12.704;2022-08-01T09:19:41;96069.63;;;26.10;57.41
21900;BME280;11114;50.658;12.704;2022-08-01T09:22:10;96066.53;;;26.64;56.26
21900;BME280;11114;50.658;12.704;2022-08-01T09:24:39;96071.66;;;26.70;55.58
21900;BME280;11114;50.658;12.704;2022-08-01T09:27:18;96067.81;;;27.08;52.90
21900;BME280;11114;50.658;12.704;2022-08-01T09:29:48;96070.69;;;28.62;50.95
21900;BME280;11114;50.658;12.704;2022-08-01T09:32:30;96067.53;;;29.28;50.15
21900;BME280;11114;50.658;12.704;2022-08-01T09:35:27;96076.91;;;27.83;51.78
21900;BME280;11114;50.658;12.704;2022-08-01T09:38:20;96089.16;;;26.15;53.21
21900;BME280;11114;50.658;12.704;2022-08-01T09:40:59;96092.88;;;25.09;54.71
21900;BME280;11114;50.658;12.704;2022-08-01T09:43:30;96099.16;;;24.44;57.43
21900;BME280;11114;50.658;12.704;2022-08-01T09:45:59;96099.50;;;24.14;58.20
21900;BME280;11114;50.658;12.704;2022-08-01T09:48:26;96112.28;;;23.68;59.33
21900;BME280;11114;50.658;12.704;2022-08-01T09:50:57;96111.75;;;23.27;59.87
21900;BME280;11114;50.658;12.704;2022-08-01T09:53:48;96111.94;;;22.98;61.06
21900;BME280;11114;50.658;12.704;2022-08-01T09:56:20;96107.44;;;22.98;61.06
21900;BME280;11114;50.658;12.704;2022-08-01T09:58:52;96116.25;;;22.87;60.24
21900;BME280;11114;50.658;12.704;2022-08-01T10:01:28;96105.44;;;23.17;59.96
21900;BME280;11114;50.658;12.704;2022-08-01T10:04:12;96102.06;;;24.42;57.22
21900;BME280;11114;50.658;12.704;2022-08-01T10:06:42;96086.53;;;26.20;53.86
21900;BME280;11114;50.658;12.704;2022-08-01T10:09:12;96093.94;;;27.37;51.50
21900;BME280;11114;50.658;12.704;2022-08-01T10:11:42;96095.34;;;26.98;51.88
21900;BME280;11114;50.658;12.704;2022-08-01T10:14:11;96094.59;;;26.25;52.83
21900;BME280;11114;50.658;12.704;2022-08-01T10:16:45;96099.13;;;25.41;53.46
21900;BME280;11114;50.658;12.704;2022-08-01T10:19:22;96103.59;;;24.92;54.67
21900;BME280;11114;50.658;12.704;2022-08-01T10:21:54;96104.44;;;24.55;56.03
21900;BME280;11114;50.658;12.704;2022-08-01T10:24:28;96106.50;;;24.37;56.84
21900;BME280;11114;50.658;12.704;2022-08-01T10:26:58;96099.66;;;24.41;56.90
21900;BME280;11114;50.658;12.704;2022-08-01T10:29:54;96101.69;;;24.88;56.36
21900;BME280;11114;50.658;12.704;2022-08-01T10:32:35;96097.66;;;26.39;52.72
21900;BME280;11114;50.658;12.704;2022-08-01T10:35:05;96094.84;;;26.55;52.11
21900;BME280;11114;50.658;12.704;2022-08-01T10:37:41;96093.75;;;26.97;50.46
21900;BME280;11114;50.658;12.704;2022-08-01T10:40:18;96087.34;;;27.84;49.53
21900;BME280;11114;50.658;12.704;2022-08-01T10:42:57;96095.94;;;27.76;49.31
21900;BME280;11114;50.658;12.704;2022-08-01T10:45:25;96092.72;;;27.84;49.59
21900;BME280;11114;50.658;12.704;2022-08-01T10:47:57;96093.56;;;27.09;49.71
21900;BME280;11114;50.658;12.704;2022-08-01T10:50:32;96092.53;;;26.73;49.82
21900;BME280;11114;50.658;12.704;2022-08-01T10:53:12;96085.91;;;26.81;49.30
21900;BME280;11114;50.658;12.704;2022-08-01T10:58:38;96092.34;;;27.41;47.60
21900;BME280;11114;50.658;12.704;2022-08-01T11:01:25;96088.19;;;28.20;47.01
21900;BME280;11114;50.658;12.704;2022-08-01T11:09:20;96091.03;;;29.13;45.65
21900;BME280;11114;50.658;12.704;2022-08-01T11:17:35;96087.38;;;28.59;45.19
21900;BME280;11114;50.658;12.704;2022-08-01T11:20:10;96069.16;;;28.21;46.40
21900;BME280;11114;50.658;12.704;2022-08-01T11:28:26;96067.56;;;33.64;37.71
21900;BME280;11114;50.658;12.704;2022-08-01T11:38:48;96081.34;;;29.70;41.93
21900;BME280;11114;50.658;12.704;2022-08-01T11:54:51;96050.59;;;32.33;37.08
21900;BME280;11114;50.658;12.704;2022-08-01T11:57:30;96053.47;;;34.33;34.25
21900;BME280;11114;50.658;12.704;2022-08-01T12:02:42;96061.41;;;30.42;39.67
21900;BME280;11114;50.658;12.704;2022-08-01T12:05:16;96059.63;;;29.56;41.06
21900;BME280;11114;50.658;12.704;2022-08-01T12:07:51;96059.44;;;28.60;42.48
21900;BME280;11114;50.658;12.704;2022-08-01T12:10:20;96055.44;;;27.93;44.74
21900;BME280;11114;50.658;12.704;2022-08-01T12:12:56;96064.22;;;27.53;44.99
21900;BME280;11114;50.658;12.704;2022-08-01T12:15:33;96066.31;;;27.37;45.48
21900;BME280;11114;50.658;12.704;2022-08-01T12:18:05;96065.59;;;27.71;45.77
21900;BME280;11114;50.658;12.704;2022-08-01T12:20:38;96061.38;;;28.25;44.04
21900;BME280;11114;50.658;12.704;2022-08-01T12:23:22;96059.06;;;29.01;42.67
21900;BME280;11114;50.658;12.704;2022-08-01T12:25:53;96058.69;;;29.22;40.94
21900;BME280;11114;50.658;12.704;2022-08-01T12:28:26;96061.28;;;28.69;42.62
21900;BME280;11114;50.658;12.704;2022-08-01T12:31:00;96056.16;;;28.78;42.40
21900;BME280;11114;50.658;12.704;2022-08-01T12:33:27;96058.34;;;28.61;43.26
21900;BME280;11114;50.658;12.704;2022-08-01T12:35:54;96054.00;;;28.70;43.16
21900;BME280;11114;50.658;12.704;2022-08-01T12:38:22;96051.63;;;29.41;42.63
21900;BME280;11114;50.658;12.704;2022-08-01T12:40:51;96054.56;;;29.50;42.54
21900;BME280;11114;50.658;12.704;2022-08-01T12:43:22;96054.31;;;29.46;42.82
21900;BME280;11114;50.658;12.704;2022-08-01T12:45:58;96062.63;;;28.87;42.47
21900;BME280;11114;50.658;12.704;2022-08-01T12:48:27;96062.34;;;28.78;43.95
21900;BME280;11114;50.658;12.704;2022-08-01T12:50:57;96061.81;;;28.71;43.04
21900;BME280;11114;50.658;12.704;2022-08-01T12:53:27;96063.19;;;28.64;42.96
21900;BME280;11114;50.658;12.704;2022-08-01T12:56:08;96069.31;;;28.84;43.22
21900;BME280;11114;50.658;12.704;2022-08-01T12:58:37;96072.75;;;29.05;42.52
21900;BME280;11114;50.658;12.704;2022-08-01T13:01:06;96064.13;;;29.13;41.91
21900;BME280;11114;50.658;12.704;2022-08-01T13:03:34;96069.91;;;28.81;42.36
21900;BME280;11114;50.658;12.704;2022-08-01T13:06:01;96078.81;;;28.42;42.98
21900;BME280;11114;50.658;12.704;2022-08-01T13:08:36;96083.34;;;27.97;43.49
21900;BME280;11114;50.658;12.704;2022-08-01T13:11:12;96085.66;;;27.48;44.07
21900;BME280;11114;50.658;12.704;2022-08-01T13:13:50;96083.16;;;27.27;44.86
21900;BME280;11114;50.658;12.704;2022-08-01T13:16:21;96085.41;;;27.50;45.50
21900;BME280;11114;50.658;12.704;2022-08-01T13:19:04;96081.38;;;27.52;45.21
21900;BME280;11114;50.658;12.704;2022-08-01T13:21:32;96078.13;;;27.41;44.86
21900;BME280;11114;50.658;12.704;2022-08-01T13:24:28;96084.00;;;27.28;44.57
21900;BME280;11114;50.658;12.704;2022-08-01T13:27:00;96081.81;;;27.20;43.98
21900;BME280;11114;50.658;12.704;2022-08-01T13:29:37;96075.97;;;27.38;44.35
21900;BME280;11114;50.658;12.704;2022-08-01T13:32:19;96082.44;;;27.47;43.68
21900;BME280;11114;50.658;12.704;2022-08-01T13:35:06;96080.81;;;27.36;44.00
21900;BME280;11114;50.658;12.704;2022-08-01T13:37:34;96081.84;;;27.30;44.39
21900;BME280;11114;50.658;12.704;2022-08-01T13:40:05;96082.66;;;27.30;44.17
21900;BME280;11114;50.658;12.704;2022-08-01T13:42:32;96078.47;;;27.64;44.51
21900;BME280;11114;50.658;12.704;2022-08-01T13:44:59;96073.94;;;27.94;43.78
21900;BME280;11114;50.658;12.704;2022-08-01T13:47:26;96071.03;;;28.26;43.19
21900;BME280;11114;50.658;12.704;2022-08-01T13:49:59;96078.25;;;28.60;42.98
21900;BME280;11114;50.658;12.704;2022-08-01T13:52:28;96083.63;;;28.55;42.37
21900;BME280;11114;50.658;12.704;2022-08-01T13:54:55;96075.03;;;28.38;42.19